Burlington Regional Airport
Tuesday 10:53 PM
Temperature58° (76°/56°)
Dew Point54°
Relative Humidity87
%
Visibility10
mi
Pressure1019.3
mb
Wind Direction
Wind SpeedCalm
Precipitation Today0.00"

Terminal Aerodrome Forecast

831 
FTUS43 KDVN 042328
TAFBRL
TAF
KBRL 042328Z 0500/0524 35005KT P6SM BKN080
     FM050100 VRB03KT P6SM FEW045
     FM051800 20005KT P6SM SCT045=

Last 30 Observations

Time PresWx Temp DP Feels RH% Vsby Pressure Ceiling Direction Speed 1h Precip